createdAt,value
2023-04-28T00:00:20.935Z,99.90
2023-04-28T00:00:43.693Z,99.90
2023-04-28T00:01:06.520Z,99.90
2023-04-28T00:01:29.400Z,99.90
2023-04-28T00:01:52.264Z,99.90
2023-04-28T00:02:15.264Z,99.90
2023-04-28T00:02:38.121Z,99.90
2023-04-28T00:03:01.263Z,99.90
2023-04-28T00:03:24.586Z,99.90
2023-04-28T00:03:48.825Z,99.90
2023-04-28T00:04:12.085Z,99.90
2023-04-28T00:04:35.426Z,99.90
2023-04-28T00:04:58.622Z,99.90
2023-04-28T00:05:23.966Z,99.90
2023-04-28T00:05:47.831Z,99.90
2023-04-28T00:06:12.014Z,99.90
2023-04-28T00:06:34.753Z,99.90
2023-04-28T00:06:59.192Z,99.90
2023-04-28T00:07:22.054Z,1.00
2023-04-28T00:07:44.926Z,99.90
2023-04-28T00:08:07.844Z,99.90
2023-04-28T00:08:30.676Z,99.90
2023-04-28T00:08:53.524Z,99.90
2023-04-28T00:09:17.032Z,99.90
2023-04-28T00:09:39.811Z,99.90
2023-04-28T00:10:02.622Z,99.90
2023-04-28T00:10:25.776Z,99.90
2023-04-28T00:10:48.501Z,99.90
2023-04-28T00:11:11.311Z,99.90
2023-04-28T00:11:34.331Z,99.90
2023-04-28T00:11:57.135Z,99.90
2023-04-28T00:12:19.897Z,99.90
2023-04-28T00:12:42.714Z,99.90
2023-04-28T00:13:05.552Z,99.90
2023-04-28T00:13:28.346Z,99.90
2023-04-28T00:13:51.906Z,99.90
2023-04-28T00:14:14.898Z,99.90
2023-04-28T00:14:38.316Z,99.90
2023-04-28T00:15:01.216Z,99.90
2023-04-28T00:15:24.139Z,99.90
2023-04-28T00:15:46.966Z,99.90
2023-04-28T00:16:09.774Z,99.90
2023-04-28T00:16:32.726Z,99.90
2023-04-28T00:16:58.022Z,99.90
2023-04-28T00:17:21.432Z,99.90
2023-04-28T00:17:44.516Z,99.90
2023-04-28T00:18:07.721Z,99.90
2023-04-28T00:18:30.704Z,99.90
2023-04-28T00:18:56.751Z,99.90
2023-04-28T00:19:19.606Z,99.90
2023-04-28T00:19:42.425Z,99.90
2023-04-28T00:20:06.911Z,99.90
2023-04-28T00:20:29.582Z,99.90
2023-04-28T00:20:52.333Z,99.90
2023-04-28T00:21:15.065Z,99.90
2023-04-28T00:21:40.349Z,99.90
2023-04-28T00:22:05.366Z,99.90
2023-04-28T00:22:28.186Z,99.90
2023-04-28T00:22:51.102Z,99.90
2023-04-28T00:23:13.834Z,99.90
2023-04-28T00:23:36.555Z,99.90
2023-04-28T00:23:59.291Z,99.90
2023-04-28T00:24:22.186Z,99.90
2023-04-28T00:24:45.018Z,99.90
2023-04-28T00:25:09.204Z,99.90
2023-04-28T00:25:32.028Z,99.90
2023-04-28T00:25:57.482Z,99.90
2023-04-28T00:26:21.025Z,99.90
2023-04-28T00:26:43.764Z,99.90
2023-04-28T00:27:09.250Z,99.90
2023-04-28T00:27:33.478Z,99.90
2023-04-28T00:27:56.384Z,99.90
2023-04-28T00:28:32.798Z,99.90
2023-04-28T00:28:57.005Z,99.90
2023-04-28T00:29:19.866Z,99.90
2023-04-28T00:29:42.656Z,99.90
2023-04-28T00:30:07.749Z,99.90
2023-04-28T00:30:30.955Z,99.90
2023-04-28T00:30:56.522Z,99.90
2023-04-28T00:31:19.338Z,1.00
2023-04-28T00:31:42.201Z,99.90
2023-04-28T00:32:06.441Z,99.90
2023-04-28T00:32:29.646Z,99.90
2023-04-28T00:32:52.692Z,99.90
2023-04-28T00:33:16.029Z,99.90
2023-04-28T00:33:38.816Z,99.90
2023-04-28T00:34:01.710Z,99.90
2023-04-28T00:34:24.635Z,99.90
2023-04-28T00:34:47.381Z,99.90
2023-04-28T00:35:10.419Z,99.90
2023-04-28T00:35:33.251Z,99.90
2023-04-28T00:36:00.878Z,99.90
2023-04-28T00:36:23.643Z,99.90
2023-04-28T00:36:46.362Z,99.90
2023-04-28T00:37:10.794Z,99.90
2023-04-28T00:37:36.878Z,99.90
2023-04-28T00:37:59.691Z,99.90
2023-04-28T00:38:25.568Z,99.90
2023-04-28T00:38:48.431Z,99.90
2023-04-28T00:39:11.369Z,99.90
2023-04-28T00:39:34.232Z,99.90
2023-04-28T00:39:59.236Z,99.90
2023-04-28T00:40:22.454Z,99.90
2023-04-28T00:40:45.298Z,99.90
2023-04-28T00:41:09.777Z,99.90
2023-04-28T00:41:34.821Z,99.90
2023-04-28T00:41:57.963Z,99.90
2023-04-28T00:42:20.847Z,99.90
2023-04-28T00:42:43.706Z,99.90
2023-04-28T00:43:06.508Z,1.00
2023-04-28T00:43:32.000Z,99.90
2023-04-28T00:43:55.193Z,99.90
2023-04-28T00:44:18.165Z,99.90
2023-04-28T00:44:41.791Z,99.90
2023-04-28T00:45:07.400Z,99.90
2023-04-28T00:45:30.223Z,99.90
2023-04-28T00:45:53.097Z,1.00
2023-04-28T00:46:22.216Z,1.00
2023-04-28T00:46:45.836Z,1.00
2023-04-28T00:47:10.274Z,1.00
2023-04-28T00:47:33.432Z,99.90
2023-04-28T00:47:57.013Z,1.00
2023-04-28T00:48:23.922Z,1.00
2023-04-28T00:48:46.818Z,1.00
2023-04-28T00:49:09.716Z,1.00
2023-04-28T00:49:34.384Z,1.00
2023-04-28T00:49:57.430Z,99.90
2023-04-28T00:50:20.424Z,1.00
2023-04-28T00:50:43.449Z,1.00
2023-04-28T00:51:07.103Z,1.00
2023-04-28T00:51:29.954Z,99.90
2023-04-28T00:51:52.740Z,1.00
2023-04-28T00:52:17.044Z,1.00
2023-04-28T00:52:39.961Z,1.00
2023-04-28T00:53:03.866Z,1.00
2023-04-28T00:53:26.650Z,1.00
2023-04-28T00:53:49.338Z,1.00
2023-04-28T00:54:14.265Z,1.00
2023-04-28T00:54:37.993Z,1.00
2023-04-28T00:55:01.029Z,1.00
2023-04-28T00:55:23.904Z,1.00
2023-04-28T00:55:46.688Z,1.00
2023-04-28T00:56:09.670Z,1.00
2023-04-28T00:56:34.617Z,1.00
2023-04-28T00:56:57.397Z,1.00
2023-04-28T00:57:22.585Z,1.00
2023-04-28T00:57:45.827Z,1.00
2023-04-28T00:58:08.600Z,1.00
2023-04-28T00:58:34.503Z,1.00
2023-04-28T00:58:57.406Z,1.00
2023-04-28T00:59:20.187Z,1.00
2023-04-28T00:59:43.074Z,1.00
2023-04-28T01:00:10.166Z,1.00
2023-04-28T01:00:33.096Z,1.00
2023-04-28T01:01:03.590Z,1.00
2023-04-28T01:01:26.517Z,1.00
2023-04-28T01:01:49.574Z,1.00
2023-04-28T01:02:17.688Z,1.00
2023-04-28T01:02:40.644Z,1.00
2023-04-28T01:03:03.602Z,1.00
2023-04-28T01:03:29.217Z,1.00
2023-04-28T01:03:52.557Z,1.00
2023-04-28T01:04:19.500Z,1.00
2023-04-28T01:04:42.894Z,1.00
2023-04-28T01:05:08.476Z,1.00
2023-04-28T01:05:31.240Z,1.00
2023-04-28T01:05:54.094Z,1.00
2023-04-28T01:06:17.147Z,1.00
2023-04-28T01:06:39.926Z,1.00
2023-04-28T01:07:04.837Z,1.00
2023-04-28T01:07:29.198Z,1.00
2023-04-28T01:07:54.422Z,1.00
2023-04-28T01:08:17.171Z,1.00
2023-04-28T01:08:42.145Z,1.00
2023-04-28T01:09:06.433Z,1.00
2023-04-28T01:09:31.427Z,1.00
2023-04-28T01:09:54.315Z,1.00
2023-04-28T01:10:20.160Z,1.00
2023-04-28T01:10:45.294Z,1.00
2023-04-28T01:11:10.444Z,1.00
2023-04-28T01:11:33.215Z,1.00
2023-04-28T01:11:56.065Z,1.00
2023-04-28T01:12:18.918Z,1.00
2023-04-28T01:12:44.104Z,1.00
2023-04-28T01:13:07.385Z,1.00
2023-04-28T01:13:32.342Z,1.00
2023-04-28T01:13:57.664Z,1.00
2023-04-28T01:14:22.854Z,1.00
2023-04-28T01:14:45.616Z,1.00
2023-04-28T01:15:12.318Z,1.00
2023-04-28T01:15:35.096Z,1.00
2023-04-28T01:15:57.935Z,1.00
2023-04-28T01:16:23.237Z,1.00
2023-04-28T01:16:46.082Z,1.00
2023-04-28T01:17:08.969Z,1.00
2023-04-28T01:17:31.774Z,1.00
2023-04-28T01:17:54.648Z,1.00
2023-04-28T01:18:17.484Z,1.00
2023-04-28T01:18:41.813Z,1.00
2023-04-28T01:19:04.548Z,1.00
2023-04-28T01:19:28.054Z,1.00
2023-04-28T01:19:53.213Z,1.00
2023-04-28T01:20:16.213Z,1.00
2023-04-28T01:20:39.215Z,1.00
2023-04-28T01:21:04.114Z,1.00
2023-04-28T01:21:29.484Z,1.00
2023-04-28T01:21:52.353Z,1.00
2023-04-28T01:22:16.567Z,1.00
2023-04-28T01:22:40.900Z,1.00
2023-04-28T01:23:03.658Z,1.00
2023-04-28T01:23:26.558Z,1.00
2023-04-28T01:23:53.151Z,1.00
2023-04-28T01:24:16.753Z,1.00
2023-04-28T01:24:42.879Z,1.00
2023-04-28T01:25:09.232Z,1.00
2023-04-28T01:25:32.030Z,1.00
2023-04-28T01:25:59.593Z,1.00
2023-04-28T01:26:22.959Z,1.00
2023-04-28T01:26:46.494Z,1.00
2023-04-28T01:27:09.299Z,1.00
2023-04-28T01:27:34.298Z,1.00
2023-04-28T01:27:57.040Z,1.00
2023-04-28T01:28:19.888Z,1.00
2023-04-28T01:28:42.665Z,1.00
2023-04-28T01:29:05.571Z,1.00
2023-04-28T01:29:30.783Z,1.00
2023-04-28T01:29:55.988Z,1.00
2023-04-28T01:30:18.955Z,1.00
2023-04-28T01:30:44.112Z,1.00
2023-04-28T01:31:06.984Z,1.00
2023-04-28T01:31:31.350Z,1.00
2023-04-28T01:31:57.263Z,1.00
2023-04-28T01:32:20.235Z,1.00
2023-04-28T01:32:43.222Z,1.00
2023-04-28T01:33:08.481Z,1.00
2023-04-28T01:33:33.860Z,1.00
2023-04-28T01:33:59.175Z,1.00
2023-04-28T01:34:21.990Z,1.00
2023-04-28T01:34:46.996Z,1.00
2023-04-28T01:35:10.141Z,1.00
2023-04-28T01:35:33.006Z,1.00
2023-04-28T01:35:59.004Z,1.00
2023-04-28T01:36:24.049Z,1.00
2023-04-28T01:36:46.962Z,1.00
2023-04-28T01:37:11.898Z,1.00
2023-04-28T01:37:35.848Z,1.00
2023-04-28T01:38:00.819Z,1.00
2023-04-28T01:38:23.552Z,1.00
2023-04-28T01:38:46.415Z,1.00
2023-04-28T01:39:10.900Z,1.00
2023-04-28T01:39:35.332Z,1.00
2023-04-28T01:39:58.135Z,1.00
2023-04-28T01:40:22.987Z,1.00
2023-04-28T01:40:45.824Z,1.00
2023-04-28T01:41:08.647Z,1.00
2023-04-28T01:41:34.695Z,1.00
2023-04-28T01:41:57.613Z,1.00
2023-04-28T01:42:22.683Z,1.00
2023-04-28T01:42:47.852Z,1.00
2023-04-28T01:43:10.629Z,1.00
2023-04-28T01:43:33.364Z,1.00
2023-04-28T01:43:56.206Z,1.00
2023-04-28T01:44:21.122Z,1.00
2023-04-28T01:44:43.915Z,1.00
2023-04-28T01:45:08.846Z,1.00
2023-04-28T01:45:31.648Z,1.00
2023-04-28T01:45:56.975Z,1.00
2023-04-28T01:46:19.885Z,1.00
2023-04-28T01:46:45.269Z,1.00
2023-04-28T01:47:10.537Z,1.00
2023-04-28T01:47:35.857Z,1.00
2023-04-28T01:47:58.658Z,1.00
2023-04-28T01:48:23.814Z,1.00
2023-04-28T01:48:49.078Z,1.00
2023-04-28T01:49:14.283Z,1.00
2023-04-28T01:49:40.056Z,1.00
2023-04-28T01:50:02.862Z,1.00
2023-04-28T01:50:25.851Z,1.00
2023-04-28T01:50:48.591Z,1.00
2023-04-28T01:51:13.554Z,1.00
2023-04-28T01:51:36.283Z,1.00
2023-04-28T01:51:59.114Z,1.00
2023-04-28T01:52:24.258Z,1.00
2023-04-28T01:52:47.039Z,1.00
2023-04-28T01:53:09.930Z,1.00
2023-04-28T01:53:32.696Z,1.00
2023-04-28T01:53:57.859Z,1.00
2023-04-28T01:54:22.074Z,1.00
2023-04-28T01:54:47.174Z,1.00
2023-04-28T01:55:10.181Z,1.00
2023-04-28T01:55:32.976Z,1.00
2023-04-28T01:55:56.799Z,1.00
2023-04-28T01:56:21.692Z,1.00
2023-04-28T01:56:44.434Z,1.00
2023-04-28T01:57:10.113Z,1.00
2023-04-28T01:57:35.297Z,1.00
2023-04-28T01:57:58.591Z,1.00
2023-04-28T01:58:22.041Z,1.00
2023-04-28T01:58:47.851Z,1.00
2023-04-28T01:59:10.612Z,1.00
2023-04-28T01:59:36.354Z,1.00
2023-04-28T02:00:00.570Z,1.00
2023-04-28T02:00:23.402Z,1.00
2023-04-28T02:00:46.627Z,1.00
2023-04-28T02:01:09.407Z,1.00
2023-04-28T02:01:32.273Z,1.00
2023-04-28T02:01:55.398Z,1.00
2023-04-28T02:02:18.299Z,1.00
2023-04-28T02:02:43.589Z,1.00
2023-04-28T02:03:06.981Z,1.00
2023-04-28T02:03:29.872Z,1.00
2023-04-28T02:03:55.449Z,1.00
2023-04-28T02:04:18.942Z,1.00
2023-04-28T02:04:42.263Z,1.00
2023-04-28T02:05:07.961Z,1.00
2023-04-28T02:05:30.728Z,1.00
2023-04-28T02:05:53.553Z,1.00
2023-04-28T02:06:16.319Z,1.00
2023-04-28T02:06:39.058Z,1.00
2023-04-28T02:07:01.874Z,1.00
2023-04-28T02:07:27.125Z,1.00
2023-04-28T02:07:49.966Z,1.00
2023-04-28T02:08:12.727Z,1.00
2023-04-28T02:08:35.720Z,1.00
2023-04-28T02:09:00.657Z,1.00
2023-04-28T02:09:27.984Z,1.00
2023-04-28T02:09:50.846Z,1.00
2023-04-28T02:10:13.550Z,1.00
2023-04-28T02:10:36.441Z,1.00
2023-04-28T02:11:02.267Z,1.00
2023-04-28T02:11:25.047Z,1.00
2023-04-28T02:11:50.016Z,1.00
2023-04-28T02:12:15.238Z,1.00
2023-04-28T02:12:40.543Z,1.00
2023-04-28T02:13:03.268Z,1.00
2023-04-28T02:13:26.109Z,1.00
2023-04-28T02:13:48.911Z,1.00
2023-04-28T02:14:11.723Z,1.00
2023-04-28T02:14:34.509Z,1.00
2023-04-28T02:14:57.591Z,1.00
2023-04-28T02:15:20.271Z,1.00
2023-04-28T02:15:45.280Z,1.00
2023-04-28T02:16:08.281Z,1.00
2023-04-28T02:16:33.998Z,1.00
2023-04-28T02:16:57.247Z,1.00
2023-04-28T02:17:20.187Z,1.00
2023-04-28T02:17:45.296Z,1.00
2023-04-28T02:18:10.470Z,1.00
2023-04-28T02:18:33.300Z,1.00
2023-04-28T02:19:00.921Z,1.00
2023-04-28T02:19:23.705Z,1.00
2023-04-28T02:19:48.989Z,1.00
2023-04-28T02:20:14.644Z,1.00
2023-04-28T02:20:39.624Z,1.00
2023-04-28T02:21:10.283Z,1.00
2023-04-28T02:21:35.236Z,1.00
2023-04-28T02:21:58.161Z,1.00
2023-04-28T02:22:21.480Z,1.00
2023-04-28T02:22:44.176Z,1.00
2023-04-28T02:23:06.996Z,1.00
2023-04-28T02:23:29.915Z,1.00
2023-04-28T02:23:52.786Z,1.00
2023-04-28T02:24:18.440Z,1.00
2023-04-28T02:24:45.572Z,1.00
2023-04-28T02:25:09.524Z,1.00
2023-04-28T02:25:32.421Z,1.00
2023-04-28T02:26:01.589Z,1.00
2023-04-28T02:26:24.828Z,1.00
2023-04-28T02:26:47.939Z,1.00
2023-04-28T02:27:13.622Z,1.00
2023-04-28T02:27:37.214Z,1.00
2023-04-28T02:28:00.031Z,1.00
2023-04-28T02:28:22.956Z,1.00
2023-04-28T02:28:48.112Z,1.00
2023-04-28T02:29:13.414Z,1.00
2023-04-28T02:29:36.348Z,1.00
2023-04-28T02:29:59.189Z,1.00
2023-04-28T02:30:25.170Z,1.00
2023-04-28T02:30:47.941Z,1.00
2023-04-28T02:31:14.228Z,1.00
2023-04-28T02:31:37.139Z,1.00
2023-04-28T02:32:04.981Z,1.00
2023-04-28T02:32:27.782Z,1.00
2023-04-28T02:32:50.850Z,1.00
2023-04-28T02:33:15.796Z,1.00
2023-04-28T02:33:38.750Z,1.00
2023-04-28T02:34:04.337Z,1.00
2023-04-28T02:34:30.136Z,1.00
2023-04-28T02:34:54.916Z,1.00
2023-04-28T02:35:19.859Z,1.00
2023-04-28T02:35:43.350Z,1.00
2023-04-28T02:36:09.266Z,1.00
2023-04-28T02:36:34.458Z,1.00
2023-04-28T02:36:57.224Z,1.00
2023-04-28T02:37:23.160Z,1.00
2023-04-28T02:37:46.598Z,1.00
2023-04-28T02:38:09.896Z,1.00
2023-04-28T02:38:32.904Z,1.00
2023-04-28T02:38:56.207Z,1.00
2023-04-28T02:39:22.078Z,1.00
2023-04-28T02:39:46.578Z,1.00
2023-04-28T02:40:10.234Z,1.00
2023-04-28T02:40:33.152Z,1.00
2023-04-28T02:41:01.197Z,1.00
2023-04-28T02:41:26.461Z,1.00
2023-04-28T02:41:49.307Z,1.00
2023-04-28T02:42:14.647Z,1.00
2023-04-28T02:42:37.687Z,1.00
2023-04-28T02:43:00.651Z,1.00
2023-04-28T02:43:26.625Z,1.00
2023-04-28T02:43:49.456Z,1.00
2023-04-28T02:44:12.424Z,1.00
2023-04-28T02:44:35.295Z,1.00
2023-04-28T02:45:00.228Z,1.00
2023-04-28T02:45:23.056Z,1.00
2023-04-28T02:45:45.825Z,1.00
2023-04-28T02:46:08.726Z,1.00
2023-04-28T02:46:31.798Z,1.00
2023-04-28T02:47:00.714Z,1.00
2023-04-28T02:47:23.584Z,1.00
2023-04-28T02:47:48.853Z,1.00
2023-04-28T02:48:12.278Z,1.00
2023-04-28T02:48:37.604Z,1.00
2023-04-28T02:49:02.641Z,1.00
2023-04-28T02:49:25.603Z,1.00
2023-04-28T02:49:50.586Z,1.00
2023-04-28T02:50:13.433Z,1.00
2023-04-28T02:50:36.605Z,1.00
2023-04-28T02:50:59.535Z,1.00
2023-04-28T02:51:24.823Z,1.00
2023-04-28T02:51:47.681Z,1.00
2023-04-28T02:52:12.761Z,1.00
2023-04-28T02:52:36.070Z,1.00
2023-04-28T02:52:58.946Z,1.00
2023-04-28T02:53:24.604Z,1.00
2023-04-28T02:53:47.475Z,1.00
2023-04-28T02:54:10.409Z,1.00
2023-04-28T02:54:35.368Z,1.00
2023-04-28T02:54:59.682Z,1.00
2023-04-28T02:55:24.880Z,1.00
2023-04-28T02:55:47.735Z,1.00
2023-04-28T02:56:12.849Z,1.60
2023-04-28T02:56:36.047Z,1.30
2023-04-28T02:56:58.921Z,1.00
2023-04-28T02:57:23.930Z,1.00
2023-04-28T02:57:46.751Z,1.00
2023-04-28T02:58:11.983Z,1.00
2023-04-28T02:58:37.253Z,1.00
2023-04-28T02:59:02.479Z,1.00
2023-04-28T02:59:25.730Z,1.00
2023-04-28T02:59:48.416Z,1.00
2023-04-28T03:00:15.225Z,1.00
2023-04-28T03:00:37.988Z,1.00
2023-04-28T03:01:01.416Z,1.00
2023-04-28T03:01:26.713Z,1.00
2023-04-28T03:01:49.936Z,1.00
2023-04-28T03:02:15.962Z,1.00
2023-04-28T03:02:38.967Z,1.00
2023-04-28T03:03:04.594Z,1.00
2023-04-28T03:03:27.747Z,1.00
2023-04-28T03:03:51.049Z,1.00
2023-04-28T03:04:17.009Z,1.00
2023-04-28T03:04:40.207Z,1.00
2023-04-28T03:05:03.112Z,1.00
2023-04-28T03:05:28.327Z,1.00
2023-04-28T03:05:53.516Z,1.00
2023-04-28T03:06:16.569Z,1.00
2023-04-28T03:06:42.348Z,1.00
2023-04-28T03:07:05.138Z,1.00
2023-04-28T03:07:28.386Z,1.00
2023-04-28T03:07:53.370Z,1.00
2023-04-28T03:08:18.625Z,3.40
2023-04-28T03:08:41.552Z,1.00
2023-04-28T03:09:06.894Z,5.10
2023-04-28T03:09:29.676Z,3.50
2023-04-28T03:09:52.526Z,3.50
2023-04-28T03:10:16.884Z,6.30
2023-04-28T03:10:42.841Z,5.10
2023-04-28T03:11:06.191Z,5.90
2023-04-28T03:11:31.542Z,8.90
2023-04-28T03:11:54.492Z,9.90
2023-04-28T03:12:19.730Z,9.90
2023-04-28T03:12:45.064Z,8.60
2023-04-28T03:13:07.955Z,8.30
2023-04-28T03:13:33.451Z,4.00
2023-04-28T03:13:58.644Z,5.00
2023-04-28T03:14:24.096Z,9.40
2023-04-28T03:14:46.967Z,9.90
2023-04-28T03:15:14.087Z,17.60
2023-04-28T03:15:37.221Z,12.50
2023-04-28T03:16:03.453Z,11.30
2023-04-28T03:16:26.569Z,12.20
2023-04-28T03:16:49.578Z,9.60
2023-04-28T03:17:14.480Z,15.10
2023-04-28T03:17:39.188Z,18.10
2023-04-28T03:18:02.175Z,18.30
2023-04-28T03:18:25.042Z,24.70
2023-04-28T03:18:47.812Z,24.20
2023-04-28T03:19:10.668Z,22.70
2023-04-28T03:19:33.541Z,24.20
2023-04-28T03:19:56.421Z,30.00
2023-04-28T03:20:19.162Z,33.60
2023-04-28T03:20:42.415Z,38.80
2023-04-28T03:21:05.268Z,33.00
2023-04-28T03:21:29.152Z,40.90
2023-04-28T03:21:51.975Z,24.50
2023-04-28T03:22:16.912Z,28.10
2023-04-28T03:22:39.692Z,32.00
2023-04-28T03:23:02.800Z,37.20
2023-04-28T03:23:25.927Z,30.30
2023-04-28T03:23:49.753Z,33.10
2023-04-28T03:24:12.700Z,39.60
2023-04-28T03:24:35.707Z,31.80
2023-04-28T03:24:58.563Z,40.10
2023-04-28T03:25:22.746Z,47.20
2023-04-28T03:25:45.718Z,50.60
2023-04-28T03:26:08.506Z,41.00
2023-04-28T03:26:33.450Z,52.70
2023-04-28T03:26:57.153Z,43.40
2023-04-28T03:27:19.896Z,38.60
2023-04-28T03:27:42.674Z,39.70
2023-04-28T03:28:06.329Z,37.70
2023-04-28T03:28:29.677Z,37.90
2023-04-28T03:28:53.296Z,27.00
2023-04-28T03:29:16.371Z,29.00
2023-04-28T03:29:39.160Z,23.90
2023-04-28T03:30:02.088Z,30.30
2023-04-28T03:30:24.932Z,31.70
2023-04-28T03:30:47.695Z,22.10
2023-04-28T03:31:10.787Z,32.90
2023-04-28T03:31:33.671Z,39.90
2023-04-28T03:31:56.663Z,40.70
2023-04-28T03:32:20.036Z,45.10
2023-04-28T03:32:42.948Z,49.60
2023-04-28T03:33:05.657Z,58.40
2023-04-28T03:33:28.648Z,38.60
2023-04-28T03:33:51.632Z,72.40
2023-04-28T03:34:14.705Z,73.00
2023-04-28T03:34:37.896Z,68.10
2023-04-28T03:35:00.692Z,64.60
2023-04-28T03:35:23.555Z,91.90
2023-04-28T03:35:46.655Z,80.40
2023-04-28T03:36:10.215Z,64.60
2023-04-28T03:36:33.452Z,82.20
2023-04-28T03:36:58.452Z,99.90
2023-04-28T03:37:21.173Z,99.90
2023-04-28T03:37:44.178Z,99.90
2023-04-28T03:38:07.258Z,99.90
2023-04-28T03:38:30.097Z,98.80
2023-04-28T03:38:53.000Z,99.90
2023-04-28T03:39:16.090Z,99.90
2023-04-28T03:39:38.906Z,99.90
2023-04-28T03:40:01.780Z,99.90
2023-04-28T03:40:26.352Z,99.90
2023-04-28T03:40:49.189Z,99.90
2023-04-28T03:41:12.395Z,99.90
2023-04-28T03:41:35.269Z,99.90
2023-04-28T03:41:58.285Z,99.90
2023-04-28T03:42:21.061Z,99.90
2023-04-28T03:42:46.246Z,99.90
2023-04-28T03:43:09.083Z,99.90
2023-04-28T03:43:33.347Z,99.90
2023-04-28T03:43:56.955Z,99.90
2023-04-28T03:44:19.890Z,99.90
2023-04-28T03:44:42.786Z,99.90
2023-04-28T03:45:06.470Z,99.90
2023-04-28T03:45:29.814Z,99.90
2023-04-28T03:45:52.824Z,99.90
2023-04-28T03:46:15.680Z,99.90
2023-04-28T03:46:40.895Z,99.90
2023-04-28T03:47:03.660Z,99.90
2023-04-28T03:47:29.056Z,99.90
2023-04-28T03:47:51.943Z,99.90
2023-04-28T03:48:14.793Z,99.90
2023-04-28T03:48:37.668Z,99.90
2023-04-28T03:49:02.338Z,99.90
2023-04-28T03:49:25.245Z,99.90
2023-04-28T03:49:48.072Z,96.00
2023-04-28T03:50:11.310Z,99.90
2023-04-28T03:50:34.190Z,99.90
2023-04-28T03:50:57.005Z,97.70
2023-04-28T03:51:19.803Z,99.90
2023-04-28T03:51:42.687Z,91.50
2023-04-28T03:52:05.478Z,91.40
2023-04-28T03:52:31.947Z,95.60
2023-04-28T03:52:54.810Z,92.60
2023-04-28T03:53:17.682Z,91.20
2023-04-28T03:53:40.646Z,96.70
2023-04-28T03:54:03.480Z,93.90
2023-04-28T03:54:26.402Z,99.90
2023-04-28T03:54:49.309Z,99.90
2023-04-28T03:55:12.169Z,99.90
2023-04-28T03:55:36.522Z,99.90
2023-04-28T03:55:59.323Z,99.90
2023-04-28T03:56:22.292Z,99.90
2023-04-28T03:56:45.073Z,99.90
2023-04-28T03:57:08.007Z,99.90
2023-04-28T03:57:30.898Z,92.80
2023-04-28T03:57:53.718Z,90.50
2023-04-28T03:58:16.852Z,89.00
2023-04-28T03:58:39.698Z,92.50
2023-04-28T03:59:04.880Z,78.80
2023-04-28T03:59:27.904Z,87.70
2023-04-28T03:59:51.630Z,91.30
2023-04-28T04:00:15.021Z,88.80
2023-04-28T04:00:37.938Z,75.80
2023-04-28T04:01:01.341Z,63.20
2023-04-28T04:01:25.480Z,58.50
2023-04-28T04:01:49.050Z,60.40
2023-04-28T04:02:14.397Z,46.40
2023-04-28T04:02:37.392Z,56.20
2023-04-28T04:03:01.126Z,55.80
2023-04-28T04:03:27.251Z,54.10
2023-04-28T04:03:50.473Z,51.60
2023-04-28T04:04:14.346Z,45.30
2023-04-28T04:04:37.821Z,47.40
2023-04-28T04:05:01.120Z,48.80
2023-04-28T04:05:24.311Z,29.30
2023-04-28T04:05:47.686Z,42.90
2023-04-28T04:06:10.842Z,18.90
2023-04-28T04:06:34.166Z,34.50
2023-04-28T04:06:56.951Z,17.20
2023-04-28T04:07:19.702Z,33.20
2023-04-28T04:07:42.539Z,67.50
2023-04-28T04:08:06.300Z,20.70
2023-04-28T04:08:29.073Z,49.60
2023-04-28T04:08:51.826Z,45.30
2023-04-28T04:09:14.694Z,45.10
2023-04-28T04:09:37.570Z,41.70
2023-04-28T04:10:01.413Z,43.70
2023-04-28T04:10:26.287Z,43.60
2023-04-28T04:10:50.757Z,44.40
2023-04-28T04:11:13.528Z,70.10
2023-04-28T04:11:36.224Z,65.30
2023-04-28T04:11:58.949Z,74.50
2023-04-28T04:12:22.278Z,55.10
2023-04-28T04:12:45.147Z,42.60
2023-04-28T04:13:08.072Z,41.30
2023-04-28T04:13:30.931Z,46.40
2023-04-28T04:13:53.781Z,57.30
2023-04-28T04:14:16.973Z,49.80
2023-04-28T04:14:40.080Z,52.20
2023-04-28T04:15:03.767Z,50.00
2023-04-28T04:15:26.629Z,38.30
2023-04-28T04:15:50.703Z,40.20
2023-04-28T04:16:16.169Z,34.20
2023-04-28T04:16:39.737Z,41.50
2023-04-28T04:17:02.609Z,43.30
2023-04-28T04:17:28.017Z,44.60
2023-04-28T04:17:50.972Z,29.20
2023-04-28T04:18:15.278Z,28.00
2023-04-28T04:18:38.067Z,42.90
2023-04-28T04:19:00.943Z,52.80
2023-04-28T04:19:26.663Z,44.00
2023-04-28T04:19:49.715Z,46.90
2023-04-28T04:20:12.977Z,50.50
2023-04-28T04:20:35.827Z,74.30
2023-04-28T04:20:59.186Z,62.30
2023-04-28T04:21:22.128Z,48.60
2023-04-28T04:21:44.913Z,63.90
2023-04-28T04:22:07.690Z,53.00
2023-04-28T04:22:30.549Z,57.20
2023-04-28T04:22:54.489Z,42.90
2023-04-28T04:23:17.320Z,31.00
2023-04-28T04:23:40.044Z,38.60
2023-04-28T04:24:02.809Z,10.00
2023-04-28T04:24:27.724Z,32.60
2023-04-28T04:24:51.398Z,32.90
2023-04-28T04:25:17.332Z,7.70
2023-04-28T04:25:40.146Z,28.10
2023-04-28T04:26:04.378Z,29.90
2023-04-28T04:26:27.095Z,34.60
2023-04-28T04:26:49.949Z,34.90
2023-04-28T04:27:12.782Z,41.30
2023-04-28T04:27:35.528Z,46.50
2023-04-28T04:28:00.710Z,39.10
2023-04-28T04:28:23.550Z,40.90
2023-04-28T04:28:46.382Z,13.70
2023-04-28T04:29:09.308Z,9.40
2023-04-28T04:29:32.177Z,36.80
2023-04-28T04:29:54.995Z,34.00
2023-04-28T04:30:17.889Z,30.30
2023-04-28T04:30:40.595Z,26.60
2023-04-28T04:31:03.620Z,25.20
2023-04-28T04:31:27.068Z,22.70
2023-04-28T04:31:49.949Z,21.20
2023-04-28T04:32:13.311Z,19.70
2023-04-28T04:32:36.138Z,24.60
2023-04-28T04:33:01.528Z,4.60
2023-04-28T04:33:24.367Z,26.90
2023-04-28T04:33:47.243Z,22.50
2023-04-28T04:34:12.281Z,17.30
2023-04-28T04:34:35.078Z,20.10
2023-04-28T04:34:57.823Z,22.00
2023-04-28T04:35:20.689Z,1.00
2023-04-28T04:35:45.789Z,19.40
2023-04-28T04:36:09.061Z,1.00
2023-04-28T04:36:33.132Z,21.00
2023-04-28T04:36:58.112Z,1.00
2023-04-28T04:37:20.958Z,22.70
2023-04-28T04:37:44.190Z,26.20
2023-04-28T04:38:09.221Z,2.30
2023-04-28T04:38:32.003Z,23.60
2023-04-28T04:38:57.254Z,11.80
2023-04-28T04:39:20.086Z,15.60
2023-04-28T04:39:42.841Z,1.00
2023-04-28T04:40:09.605Z,1.00
2023-04-28T04:40:32.484Z,23.00
2023-04-28T04:40:55.262Z,4.80
2023-04-28T04:41:23.115Z,28.20
2023-04-28T04:41:45.942Z,25.30
2023-04-28T04:42:23.378Z,23.70
2023-04-28T04:42:48.107Z,16.30
2023-04-28T04:43:11.021Z,1.00
2023-04-28T04:43:33.785Z,11.30
2023-04-28T04:43:56.648Z,8.00
2023-04-28T04:44:20.069Z,6.20
2023-04-28T04:44:43.103Z,10.90
2023-04-28T04:45:08.066Z,9.40
2023-04-28T04:45:31.138Z,17.70
2023-04-28T04:45:54.471Z,20.80
2023-04-28T04:46:17.338Z,15.70
2023-04-28T04:46:40.281Z,18.90
2023-04-28T04:47:03.071Z,21.90
2023-04-28T04:47:25.894Z,24.70
2023-04-28T04:47:48.746Z,3.70
2023-04-28T04:48:11.744Z,28.40
2023-04-28T04:48:34.880Z,24.90
2023-04-28T04:48:57.837Z,3.00
2023-04-28T04:49:20.567Z,2.90
2023-04-28T04:49:46.081Z,1.90
2023-04-28T04:50:12.010Z,1.00
2023-04-28T04:50:34.902Z,1.00
2023-04-28T04:50:57.700Z,1.00
2023-04-28T04:51:20.517Z,1.00
2023-04-28T04:51:43.434Z,1.60
2023-04-28T04:52:07.160Z,1.50
2023-04-28T04:52:29.905Z,6.40
2023-04-28T04:52:54.648Z,13.70
2023-04-28T04:53:17.568Z,11.70
2023-04-28T04:53:40.344Z,7.50
2023-04-28T04:54:03.138Z,5.90
2023-04-28T04:54:26.091Z,5.00
2023-04-28T04:54:48.908Z,5.20
2023-04-28T04:55:14.136Z,1.00
2023-04-28T04:55:39.314Z,1.40
2023-04-28T04:56:02.876Z,3.80
2023-04-28T04:56:27.161Z,4.60
2023-04-28T04:56:49.850Z,1.00
2023-04-28T04:57:13.500Z,1.00
2023-04-28T04:57:36.199Z,4.90
2023-04-28T04:57:59.114Z,4.40
2023-04-28T04:58:21.785Z,1.00
2023-04-28T04:58:45.014Z,1.00
2023-04-28T04:59:10.460Z,1.00
2023-04-28T04:59:33.300Z,1.00
2023-04-28T04:59:56.178Z,1.00
2023-04-28T05:00:20.374Z,1.00
2023-04-28T05:00:43.450Z,1.00
2023-04-28T05:01:06.241Z,1.60
2023-04-28T05:01:28.979Z,4.50
2023-04-28T05:01:54.204Z,1.00
2023-04-28T05:02:17.409Z,11.00
2023-04-28T05:02:40.843Z,16.40
2023-04-28T05:03:06.389Z,10.80
2023-04-28T05:03:29.719Z,13.30
2023-04-28T05:03:53.059Z,12.00
2023-04-28T05:04:16.323Z,12.80
2023-04-28T05:04:39.488Z,1.00
2023-04-28T05:05:16.689Z,5.60
2023-04-28T05:05:46.329Z,6.80
2023-04-28T05:06:09.230Z,17.10
2023-04-28T05:06:31.956Z,15.40
2023-04-28T05:06:54.789Z,15.50
2023-04-28T05:07:17.642Z,15.40
2023-04-28T05:07:40.513Z,10.80
2023-04-28T05:08:03.840Z,16.30
2023-04-28T05:08:26.822Z,11.30
2023-04-28T05:08:51.714Z,1.00
2023-04-28T05:09:14.406Z,10.60
2023-04-28T05:09:37.169Z,12.80
2023-04-28T05:09:59.971Z,16.50
2023-04-28T05:10:22.786Z,14.20
2023-04-28T05:10:45.631Z,9.50
2023-04-28T05:11:10.755Z,12.80
2023-04-28T05:11:34.975Z,15.80
2023-04-28T05:11:57.992Z,18.00